createdAt,value
2023-03-21T00:00:35.433Z,68.72856975234369
2023-03-21T00:03:33.008Z,69.63342069381999
2023-03-21T00:06:28.565Z,69.38354198695316
2023-03-21T00:09:24.132Z,69.554457440405
2023-03-21T00:12:20.698Z,69.86663400618033
2023-03-21T00:15:20.574Z,69.55863163823122
2023-03-21T00:18:17.775Z,68.79532423990976
2023-03-21T00:21:40.919Z,68.54216220600082
2023-03-21T00:24:22.889Z,67.92382305722975
2023-03-21T00:27:44.882Z,67.93957473539463
2023-03-21T00:30:20.938Z,67.55719257089473
2023-03-21T00:33:22.796Z,67.40929347502647
2023-03-21T00:36:19.124Z,67.21209005253344
2023-03-21T00:39:14.671Z,66.67130527000732
2023-03-21T00:42:10.198Z,66.82793050833389
2023-03-21T00:45:10.724Z,66.81358791075984
2023-03-21T00:48:06.417Z,67.05532397086421
2023-03-21T00:51:01.873Z,67.261681844603
2023-03-21T00:53:58.450Z,66.8761829334642
2023-03-21T00:56:55.001Z,66.62331211773852
2023-03-21T00:59:50.544Z,66.55882771367719
2023-03-21T01:03:02.661Z,66.09026785952433
2023-03-21T01:06:39.664Z,65.87403570452254
2023-03-21T01:09:35.109Z,66.02074524150241
2023-03-21T01:12:30.651Z,66.42395099331452
2023-03-21T01:15:26.221Z,66.71012088848077
2023-03-21T01:18:24.788Z,66.66505349226959
2023-03-21T01:21:20.347Z,66.57401058863665
2023-03-21T01:24:15.878Z,66.41570647522163
2023-03-21T01:27:11.470Z,66.87948327851059
2023-03-21T01:30:17.386Z,66.91237387441221
2023-03-21T01:36:16.425Z,66.24994957828552
2023-03-21T01:39:12.687Z,66.25074145611794
2023-03-21T01:42:13.246Z,66.31966398752938
2023-03-21T01:45:23.719Z,66.37794649652076
2023-03-21T01:48:20.241Z,66.56008057841639
2023-03-21T01:51:15.871Z,66.34572904824051
2023-03-21T01:54:14.412Z,66.0397372887146
2023-03-21T01:57:12.906Z,65.25033768546314
2023-03-21T02:00:12.534Z,66.05269089297782
2023-03-21T02:03:16.870Z,65.65995955157386
2023-03-21T02:06:15.609Z,65.99437111088537
2023-03-21T02:09:13.116Z,66.10203701567602
2023-03-21T02:12:09.724Z,66.08143837343967
2023-03-21T02:15:07.263Z,65.79630231281229
2023-03-21T02:18:10.804Z,65.9628050999584
2023-03-21T02:21:21.311Z,66.52804371120861
2023-03-21T02:24:36.826Z,66.912691206298
2023-03-21T02:27:40.348Z,66.98235845628149
2023-03-21T02:30:59.936Z,66.93066006752295
2023-03-21T02:34:15.379Z,67.01591560964852
2023-03-21T02:37:23.571Z,67.35560250735656
2023-03-21T02:40:29.492Z,67.60027375067047
2023-03-21T02:43:35.010Z,67.44602478104743
2023-03-21T02:46:45.446Z,67.74246276313815
2023-03-21T02:49:46.048Z,67.54973139940405
2023-03-21T02:52:47.600Z,67.26057557818888
2023-03-21T02:55:48.177Z,67.71773206441284
2023-03-21T02:58:46.723Z,67.71773206441284
2023-03-21T03:01:42.331Z,67.59754490223273
2023-03-21T03:04:42.870Z,67.91701565531434
2023-03-21T03:07:50.385Z,67.94511187260274
2023-03-21T03:11:03.861Z,68.22228048927369
2023-03-21T03:14:38.583Z,68.45691146225975
2023-03-21T03:17:28.409Z,68.41780951182845
2023-03-21T03:20:36.844Z,68.31484994546987
2023-03-21T03:26:51.485Z,68.34770602322583
2023-03-21T03:29:51.068Z,68.88024834625867
2023-03-21T03:32:51.581Z,68.45704314817344
2023-03-21T03:35:59.040Z,68.95793373580062
2023-03-21T03:38:54.714Z,69.46425621188807
2023-03-21T03:42:10.231Z,69.66458129719064
2023-03-21T03:45:00.785Z,69.51970881077752
2023-03-21T03:48:04.371Z,69.56593829148774
2023-03-21T03:51:03.855Z,69.15159233261694
2023-03-21T03:54:03.427Z,68.48363588226938
2023-03-21T03:57:00.968Z,68.19716114758931
2023-03-21T03:59:58.522Z,68.42532770461763
2023-03-21T04:02:54.164Z,68.20460996190177
2023-03-21T04:05:53.678Z,68.56897401132439
2023-03-21T04:08:51.245Z,68.94384716332556
2023-03-21T04:11:46.753Z,69.39935840032942
2023-03-21T04:17:47.856Z,69.5795068643914
2023-03-21T04:20:44.823Z,69.58366240313559
2023-03-21T04:23:39.992Z,69.91105117248685
2023-03-21T04:26:36.550Z,70.33648419698767
2023-03-21T04:29:32.098Z,70.61371660383563
2023-03-21T04:32:27.696Z,70.0278440022669
2023-03-21T04:35:25.235Z,68.9381601046956
2023-03-21T04:38:20.783Z,70.67210940048842
2023-03-21T04:44:22.952Z,71.06819297135989
2023-03-21T04:47:20.582Z,71.35283282960431
2023-03-21T04:50:16.023Z,71.26721917498243
2023-03-21T04:53:11.537Z,71.18100102303904
2023-03-21T04:56:09.130Z,71.04949256999129
2023-03-21T04:59:07.624Z,71.96716752469789
2023-03-21T05:02:03.214Z,72.39143331102868
2023-03-21T05:04:58.772Z,72.15134521768407
2023-03-21T05:07:58.312Z,72.04401819917479
2023-03-21T05:10:53.941Z,71.10462599122228
2023-03-21T05:13:49.470Z,70.1031430071867
2023-03-21T05:16:53.375Z,70.23577930688624
2023-03-21T05:19:52.561Z,69.07984428690338
2023-03-21T05:22:51.168Z,67.73003328974339
2023-03-21T05:25:49.673Z,67.46266529270041
2023-03-21T05:28:48.240Z,69.65569889675118
2023-03-21T05:31:47.797Z,69.81928154849663
2023-03-21T05:34:43.306Z,70.48885279917727
2023-03-21T05:37:38.904Z,70.35005421532217
2023-03-21T05:40:35.423Z,69.50604493044386
2023-03-21T05:43:30.980Z,68.79779646688965
2023-03-21T05:46:26.617Z,68.31107240871829
2023-03-21T05:49:23.164Z,68.15134526597353
2023-03-21T05:52:18.713Z,69.17268783574674
2023-03-21T05:55:14.231Z,68.87594272442976
2023-03-21T05:58:12.823Z,68.7740568858873
2023-03-21T06:01:08.408Z,69.05732586772717
2023-03-21T06:04:04.028Z,68.05180678651972
2023-03-21T06:06:59.492Z,67.35839057397406
2023-03-21T06:09:56.066Z,68.42337152147218
2023-03-21T06:12:51.610Z,67.83433643914988
2023-03-21T06:15:47.266Z,67.775079016796
2023-03-21T06:18:42.736Z,66.98707454387157
2023-03-21T06:21:38.254Z,66.87520906741678
2023-03-21T06:24:33.925Z,67.2537843520123
2023-03-21T06:27:29.445Z,67.8438185240669
2023-03-21T06:30:25.991Z,66.98549680365075
2023-03-21T06:33:21.530Z,66.59063805814965
2023-03-21T06:36:22.072Z,67.18913081893152
2023-03-21T06:39:18.677Z,65.70523624477208
2023-03-21T06:42:14.185Z,65.32804620391114
2023-03-21T06:45:09.804Z,63.407689141460864
2023-03-21T06:48:09.106Z,62.27186455483909
2023-03-21T06:51:05.891Z,62.02059026117902
2023-03-21T06:54:01.437Z,61.76230513449174
2023-03-21T06:56:57.013Z,63.08628435969205
2023-03-21T06:59:53.533Z,61.20864055736065
2023-03-21T07:02:51.313Z,61.22387322380992
2023-03-21T07:05:47.673Z,61.43916821033028
2023-03-21T07:08:48.229Z,61.071108983300654
2023-03-21T07:11:43.791Z,62.279968029455496
2023-03-21T07:14:39.362Z,63.04868391883254
2023-03-21T07:17:35.889Z,62.40970431618661
2023-03-21T07:20:31.449Z,62.09600899122724
2023-03-21T07:23:28.081Z,62.84276595622873
2023-03-21T07:26:24.568Z,62.48555513219992
2023-03-21T07:29:22.187Z,60.41331276710305
2023-03-21T07:32:17.711Z,59.052986505337124
2023-03-21T07:35:14.229Z,57.60264524534582
2023-03-21T07:38:09.821Z,58.26718034274355
2023-03-21T07:41:05.420Z,59.43160607741369
2023-03-21T07:44:01.953Z,59.54695864609488
2023-03-21T07:46:57.488Z,58.708129492838616
2023-03-21T07:52:58.607Z,56.892976024370405
2023-03-21T07:55:56.165Z,56.50014894005788
2023-03-21T07:58:51.750Z,55.14783876494775
2023-03-21T08:01:47.286Z,54.907538762427905
2023-03-21T08:04:43.833Z,55.17855271334335
2023-03-21T08:07:39.396Z,55.33689188018029
2023-03-21T08:10:35.953Z,54.20062901035831
2023-03-21T08:13:31.522Z,53.63729862098743
2023-03-21T08:16:27.155Z,53.41988404177506
2023-03-21T08:19:22.663Z,52.447759461550355
2023-03-21T08:22:18.232Z,51.47188225012871
2023-03-21T08:28:21.347Z,49.939517762803376
2023-03-21T08:31:17.909Z,48.90393236603112
2023-03-21T08:34:13.440Z,48.6331880349496
2023-03-21T08:37:09.957Z,48.98207095939824
2023-03-21T08:40:09.522Z,47.82529826240341
2023-03-21T08:43:06.069Z,48.114392995401204
2023-03-21T08:46:03.710Z,48.7736590782646
2023-03-21T08:48:59.153Z,48.94742791021111
2023-03-21T08:51:55.777Z,49.23812611007195
2023-03-21T08:54:52.313Z,47.680904999240624
2023-03-21T08:57:48.904Z,48.92304530486111
2023-03-21T09:00:46.436Z,49.70290607208733
2023-03-21T09:03:41.994Z,51.24522662063064
2023-03-21T09:06:38.587Z,50.79503517793188
2023-03-21T09:09:36.114Z,49.74957901427282
2023-03-21T09:12:31.635Z,47.20036554483976
2023-03-21T09:15:28.228Z,47.54756776093852
2023-03-21T09:18:44.754Z,47.08255585490332
2023-03-21T09:21:45.300Z,43.789748362757926
2023-03-21T09:24:41.855Z,45.684459572174404
2023-03-21T09:27:37.411Z,43.622600903777425
2023-03-21T09:30:33.970Z,43.661461132811134
2023-03-21T09:33:32.546Z,41.61077103719278
2023-03-21T09:36:30.067Z,40.54795909318355
2023-03-21T09:39:26.661Z,40.59508298802769
2023-03-21T09:42:34.192Z,41.65072730943744
2023-03-21T09:45:38.224Z,42.7379199348844
2023-03-21T09:48:53.980Z,42.26170984635267
2023-03-21T09:51:47.063Z,42.78702454602303
2023-03-21T09:54:46.363Z,40.119250768577025
2023-03-21T09:57:55.906Z,41.369292035079894
2023-03-21T10:01:01.429Z,41.72348788268378
2023-03-21T10:04:01.115Z,42.38137136738856
2023-03-21T10:07:02.519Z,41.28415287600265
2023-03-21T10:10:02.112Z,41.840962594985854
2023-03-21T10:13:01.585Z,40.82599844862911
2023-03-21T10:16:00.257Z,39.9826391294178
2023-03-21T10:18:59.668Z,39.72426348164085
2023-03-21T10:22:01.207Z,39.336187494184564
2023-03-21T10:24:58.840Z,38.12991637218305
2023-03-21T10:27:55.362Z,36.50191916398224
2023-03-21T10:30:57.900Z,36.34469273805008
2023-03-21T10:33:57.503Z,37.652608515410485
2023-03-21T10:36:57.044Z,36.8635350729968
2023-03-21T10:39:58.822Z,35.19046309085114
2023-03-21T10:42:56.108Z,34.79874232883396
2023-03-21T10:45:55.779Z,35.281464881412994
2023-03-21T10:48:52.378Z,35.449879382533815
2023-03-21T10:51:51.769Z,35.4700627245905
2023-03-21T10:54:55.299Z,34.07228897399591
2023-03-21T10:57:53.889Z,33.90757807142322
2023-03-21T11:00:55.513Z,32.2532679297157
2023-03-21T11:07:06.537Z,31.4617059152301
2023-03-21T11:10:17.199Z,31.928119568083364
2023-03-21T11:13:23.513Z,30.413703941870462
2023-03-21T11:16:24.161Z,32.718573562845954
2023-03-21T11:19:27.682Z,31.76073698505213
2023-03-21T11:22:25.202Z,32.969667421989186
2023-03-21T11:25:25.761Z,31.82264499308886
2023-03-21T11:28:24.303Z,31.94538822642379
2023-03-21T11:31:25.140Z,33.31247420536032
2023-03-21T11:34:26.449Z,33.06826294702642
2023-03-21T11:37:26.972Z,32.452011728104125
2023-03-21T11:40:28.477Z,32.214622952801015
2023-03-21T11:43:27.050Z,32.25250138149532
2023-03-21T11:46:29.617Z,31.669017208303806
2023-03-21T11:49:27.179Z,30.638298540762378
2023-03-21T11:52:33.675Z,31.261414764621456
2023-03-21T11:55:46.208Z,30.01941824507178
2023-03-21T11:58:55.902Z,30.880287174642465
2023-03-21T12:02:00.292Z,30.59953325433576
2023-03-21T12:05:12.818Z,31.561967409505506
2023-03-21T12:08:23.319Z,28.91107506407322
2023-03-21T12:11:27.870Z,28.651631268279463
2023-03-21T12:14:35.394Z,27.179703840696586
2023-03-21T12:17:42.952Z,28.589522328674928
2023-03-21T12:20:47.484Z,30.409930800577897
2023-03-21T12:23:56.994Z,30.669721832093316
2023-03-21T12:26:59.243Z,29.529128013109894
2023-03-21T12:30:11.065Z,33.51547367268851
2023-03-21T12:33:22.574Z,35.096070824053754
2023-03-21T12:36:36.082Z,35.942108986001564
2023-03-21T12:39:38.590Z,37.25655929708515
2023-03-21T12:42:52.152Z,37.38519111673495
2023-03-21T12:45:52.973Z,36.646246247152746
2023-03-21T12:48:56.186Z,37.68555937371016
2023-03-21T12:51:57.806Z,37.88211569156519
2023-03-21T12:55:00.314Z,36.98338507163257
2023-03-21T12:58:01.887Z,37.830379289832614
2023-03-21T13:01:04.470Z,36.94655069080693
2023-03-21T13:04:13.972Z,35.8402698887531
2023-03-21T13:07:13.484Z,36.08529094606002
2023-03-21T13:10:14.059Z,34.89614370404352
2023-03-21T13:13:19.590Z,32.42362024672665
2023-03-21T13:16:23.296Z,32.555066155755746
2023-03-21T13:19:28.613Z,30.35882075605773
2023-03-21T13:22:30.209Z,27.084785209939295
2023-03-21T13:25:32.734Z,28.12915308559378
2023-03-21T13:28:35.336Z,26.73673575627387
2023-03-21T13:31:51.742Z,26.200107727800205
2023-03-21T13:34:51.350Z,28.092326789427794
2023-03-21T13:37:51.963Z,30.81287562144519
2023-03-21T13:40:57.454Z,32.77444977665518
2023-03-21T13:44:07.924Z,32.8993895593654
2023-03-21T13:47:13.498Z,33.93457939906313
2023-03-21T13:50:20.044Z,28.802961477989005
2023-03-21T13:53:22.568Z,28.024143840924534
2023-03-21T13:56:21.141Z,28.951220687225078
2023-03-21T13:59:33.662Z,30.979825625568658
2023-03-21T14:02:33.186Z,31.751146763953884
2023-03-21T14:05:31.818Z,31.80881909248442
2023-03-21T14:08:37.149Z,33.27901481478211
2023-03-21T14:11:32.862Z,32.56962187487124
2023-03-21T14:14:33.362Z,31.791631521922184
2023-03-21T14:17:31.029Z,28.757457745776044
2023-03-21T14:20:29.511Z,27.72833539803215
2023-03-21T14:23:25.071Z,27.922723838815394
2023-03-21T14:26:22.173Z,27.515713405100364
2023-03-21T14:29:26.503Z,30.57423134137797
2023-03-21T14:32:24.722Z,28.48072922830419
2023-03-21T14:35:22.327Z,28.270540545271842
2023-03-21T14:38:19.848Z,28.684004667076508
2023-03-21T14:41:21.406Z,28.011351635804413
2023-03-21T14:44:24.915Z,27.875099821890814
2023-03-21T14:47:21.445Z,29.095680535535987
2023-03-21T14:50:19.042Z,28.905427182658173
2023-03-21T14:53:18.604Z,27.45194083929674
2023-03-21T14:56:18.150Z,27.24051700058849
2023-03-21T14:59:17.688Z,31.06453956607961
2023-03-21T15:02:17.315Z,32.82441344134605
2023-03-21T15:05:15.854Z,29.775990453878475
2023-03-21T15:08:14.398Z,30.81487661967042
2023-03-21T15:11:12.900Z,29.328461059860714
2023-03-21T15:14:12.474Z,29.386182753469857
2023-03-21T15:17:10.011Z,28.299830903504073
2023-03-21T15:20:09.573Z,27.720223629473704
2023-03-21T15:23:09.135Z,27.42763378799594
2023-03-21T15:26:06.745Z,26.777733221539705
2023-03-21T15:29:06.258Z,26.891893942820897
2023-03-21T15:32:04.800Z,27.20702785960038
2023-03-21T15:35:05.321Z,26.574344333633867
2023-03-21T15:38:06.801Z,26.136326941968836
2023-03-21T15:41:13.379Z,25.101023610628626
2023-03-21T15:44:13.951Z,23.66664361923499
2023-03-21T15:47:13.577Z,24.330690857308575
2023-03-21T15:50:21.069Z,23.108583010217146
2023-03-21T15:53:17.634Z,22.692831139687982
2023-03-21T15:56:26.312Z,24.00292757161505
2023-03-21T15:59:24.698Z,26.10852873758458
2023-03-21T16:02:23.364Z,24.113684491169163
2023-03-21T16:05:30.799Z,23.410876011564007
2023-03-21T16:08:33.340Z,21.79595771701341
2023-03-21T16:11:37.868Z,24.44861522032585
2023-03-21T16:14:33.423Z,22.64847448753186
2023-03-21T16:17:38.948Z,24.217117401902787
2023-03-21T16:20:39.848Z,23.25143720245614
2023-03-21T16:23:36.664Z,24.11575872864881
2023-03-21T16:26:37.639Z,24.902640362434575
2023-03-21T16:29:37.845Z,24.56425853372033
2023-03-21T16:32:37.708Z,24.96688374516992
2023-03-21T16:35:34.271Z,25.531099566300185
2023-03-21T16:38:31.868Z,26.299653838449437
2023-03-21T16:41:28.395Z,28.179980470493888
2023-03-21T16:44:24.934Z,31.246999872404842
2023-03-21T16:47:23.512Z,33.15420515534318
2023-03-21T16:50:23.066Z,35.0246175581018
2023-03-21T16:53:18.728Z,35.68935736894517
2023-03-21T16:56:17.165Z,36.16396579341468
2023-03-21T16:59:13.764Z,36.76711568180953
2023-03-21T17:02:13.275Z,37.469682500177555
2023-03-21T17:05:11.819Z,38.06551228859713
2023-03-21T17:08:15.363Z,38.84639409434837
2023-03-21T17:11:16.084Z,39.45732454110808
2023-03-21T17:14:13.480Z,40.731394042268505
2023-03-21T17:17:17.031Z,41.702356893481095
2023-03-21T17:20:16.573Z,42.128902304066266
2023-03-21T17:23:12.156Z,42.740334774911275
2023-03-21T17:26:14.890Z,43.1333751254905
2023-03-21T17:29:21.181Z,43.94225997271621
2023-03-21T17:32:22.746Z,42.928721874929295
2023-03-21T17:35:21.345Z,42.149697819345775
2023-03-21T17:38:21.839Z,42.02798066776691
2023-03-21T17:41:19.417Z,42.409015144411015
2023-03-21T17:44:15.938Z,42.50158701200166
2023-03-21T17:47:11.486Z,41.89948080282426
2023-03-21T17:50:13.037Z,42.10653098759743
2023-03-21T17:53:14.624Z,43.50942781231847
2023-03-21T17:56:14.216Z,42.51887914343077
2023-03-21T17:59:11.716Z,43.374594011872
2023-03-21T18:02:08.327Z,44.60429951626969
2023-03-21T18:05:04.882Z,43.472134928958724
2023-03-21T18:08:10.123Z,43.85346929652935
2023-03-21T18:11:03.936Z,45.10254383247223
2023-03-21T18:14:15.040Z,45.83764757988979
2023-03-21T18:17:01.050Z,46.40048820191273
2023-03-21T18:19:56.722Z,47.1031012526617
2023-03-21T18:22:52.126Z,48.09088648390271
2023-03-21T18:25:53.700Z,47.68481672623745
2023-03-21T18:29:47.337Z,46.447404338167594
2023-03-21T18:32:06.670Z,46.570429683281525
2023-03-21T18:35:11.337Z,47.62200950858373
2023-03-21T18:38:11.879Z,48.692685122437645
2023-03-21T18:41:12.511Z,49.48515447435372
2023-03-21T18:44:21.239Z,50.09992526708665
2023-03-21T18:47:12.551Z,50.006163667748595
2023-03-21T18:50:15.479Z,49.422587407667656
2023-03-21T18:53:09.654Z,49.14122967473024
2023-03-21T18:56:10.225Z,48.7978219419838
2023-03-21T18:59:06.768Z,49.13670469992784
2023-03-21T19:02:03.437Z,49.603643999500946
2023-03-21T19:04:58.905Z,49.48223302035397
2023-03-21T19:07:56.408Z,49.451936284590346
2023-03-21T19:10:53.184Z,50.066670445269125
2023-03-21T19:13:48.503Z,49.67672475324304
2023-03-21T19:17:23.110Z,49.32242509316933
2023-03-21T19:19:50.868Z,49.26314049952592
2023-03-21T19:22:47.221Z,47.990213014322244
2023-03-21T19:25:44.719Z,49.112210528988236
2023-03-21T19:28:42.328Z,49.34834061058123
2023-03-21T19:31:38.898Z,50.21241700291989
2023-03-21T19:34:36.408Z,51.110390332424785
2023-03-21T19:37:35.967Z,50.97936689377477
2023-03-21T19:40:31.488Z,50.725457889790846
2023-03-21T19:43:33.105Z,51.020123606968944
2023-03-21T19:46:34.644Z,51.09141085971905
2023-03-21T19:49:52.078Z,51.81749636406266
2023-03-21T19:52:37.750Z,51.40768213143851
2023-03-21T19:55:33.789Z,51.33520930049052
2023-03-21T19:58:31.850Z,51.895786300389126
2023-03-21T20:01:28.462Z,51.78555862468849
2023-03-21T20:04:28.941Z,51.870361950470055
2023-03-21T20:07:30.494Z,51.99539653292396
2023-03-21T20:10:31.075Z,51.800707303114244
2023-03-21T20:13:26.599Z,51.242019488052215
2023-03-21T20:16:23.394Z,49.950379344107226
2023-03-21T20:19:19.715Z,51.00620014323437
2023-03-21T20:22:29.427Z,50.78047547234049
2023-03-21T20:25:21.794Z,50.71538787512782
2023-03-21T20:28:25.532Z,52.121657681717956
2023-03-21T20:31:25.978Z,52.44643983650945
2023-03-21T20:34:22.485Z,49.15712607266484
2023-03-21T20:37:24.011Z,49.51782776837909
2023-03-21T20:40:20.562Z,48.217799240373495
2023-03-21T20:44:04.916Z,49.70378070783238
2023-03-21T20:46:21.750Z,48.08629170153465
2023-03-21T20:49:23.237Z,48.67458412075138
2023-03-21T20:52:57.943Z,51.27710371648309
2023-03-21T20:55:25.292Z,50.670019465966654
2023-03-21T20:58:50.839Z,53.67885084673366
2023-03-21T21:01:31.463Z,53.75701420218913
2023-03-21T21:04:49.906Z,54.149060197125166
2023-03-21T21:07:35.513Z,53.74068398479668
2023-03-21T21:10:55.506Z,53.48357526960997
2023-03-21T21:13:44.572Z,53.41634650299324
2023-03-21T21:16:46.087Z,52.2482214737681
2023-03-21T21:23:00.168Z,52.83134201110517
2023-03-21T21:26:04.706Z,52.03213304344479
2023-03-21T21:29:06.249Z,54.61232882133611
2023-03-21T21:32:06.842Z,53.68648018275946
2023-03-21T21:35:09.525Z,51.73286159721298
2023-03-21T21:38:12.923Z,53.78281415109636
2023-03-21T21:41:17.463Z,54.03294146642274
2023-03-21T21:44:18.960Z,54.58900141104475
2023-03-21T21:50:29.062Z,50.72021951621991
2023-03-21T21:53:33.613Z,53.73388767596245
2023-03-21T21:56:35.082Z,51.5508272505143
2023-03-21T21:59:36.723Z,52.6494415777406
2023-03-21T22:02:37.265Z,52.74234022308868
2023-03-21T22:05:38.725Z,54.24307739022107
2023-03-21T22:08:47.319Z,55.254822827150015
2023-03-21T22:11:48.852Z,55.23293953465034
2023-03-21T22:14:49.407Z,55.471749611030006
2023-03-21T22:17:50.977Z,56.175115192161265
2023-03-21T22:20:52.531Z,57.271588602431414
2023-03-21T22:23:53.058Z,58.52931081688945
2023-03-21T22:26:57.706Z,59.806868387627325
2023-03-21T22:30:04.169Z,59.91079925528991
2023-03-21T22:33:09.736Z,60.08965014780749
2023-03-21T22:36:11.187Z,60.27683984662672
2023-03-21T22:39:13.721Z,61.123128875274446
2023-03-21T22:42:14.292Z,61.51734452938306
2023-03-21T22:45:15.848Z,60.99344145582774
2023-03-21T22:48:16.475Z,61.20301019713048
2023-03-21T22:51:16.947Z,62.148635982281526
2023-03-21T22:54:17.505Z,61.82167376325759
2023-03-21T22:57:20.075Z,62.736788501989075
2023-03-21T23:00:20.640Z,63.48922353546998
2023-03-21T23:03:21.100Z,63.32290145061207
2023-03-21T23:06:21.678Z,63.153830448491895
2023-03-21T23:09:18.261Z,61.875909066300515
2023-03-21T23:12:16.830Z,61.1619666733559
2023-03-21T23:15:12.329Z,62.391463447364444
2023-03-21T23:18:07.911Z,63.13429418498621
2023-03-21T23:21:06.480Z,61.868167722719384
2023-03-21T23:24:02.047Z,62.22026636598054
2023-03-21T23:26:57.563Z,62.648353869634484
2023-03-21T23:29:54.172Z,63.839237338705125
2023-03-21T23:32:49.735Z,64.30659654876159
2023-03-21T23:35:46.338Z,62.951149340400924
2023-03-21T23:38:42.797Z,63.532034789559326
2023-03-21T23:41:42.382Z,64.05415852998941
2023-03-21T23:44:37.936Z,64.29881282919438
2023-03-21T23:47:33.505Z,64.68407809984629
2023-03-21T23:50:29.042Z,63.82121936858257
2023-03-21T23:53:24.641Z,63.449839478515464
2023-03-21T23:56:25.181Z,63.356748680436695
2023-03-21T23:59:21.679Z,63.91580812657427
